createdAt,value
2018-12-12T00:00:25.594Z,14.00
2018-12-12T00:08:46.947Z,14.13
2018-12-12T00:17:08.005Z,14.23
2018-12-12T00:25:29.062Z,15.33
2018-12-12T00:33:50.243Z,16.23
2018-12-12T00:42:11.299Z,16.83
2018-12-12T00:50:32.455Z,15.50
2018-12-12T00:58:53.623Z,13.57
2018-12-12T01:07:14.807Z,13.90
2018-12-12T01:15:35.887Z,13.53
2018-12-12T01:23:56.943Z,13.20
2018-12-12T01:32:17.992Z,12.77
2018-12-12T01:40:39.171Z,13.00
2018-12-12T01:49:00.234Z,12.47
2018-12-12T01:57:21.302Z,12.07
2018-12-12T02:05:42.367Z,11.73
2018-12-12T02:14:03.424Z,12.03
2018-12-12T02:22:24.483Z,10.97
2018-12-12T02:30:45.539Z,11.10
2018-12-12T02:39:06.650Z,11.27
2018-12-12T02:47:27.716Z,10.80
2018-12-12T02:55:48.888Z,10.97
2018-12-12T03:04:10.060Z,10.67
2018-12-12T03:12:31.114Z,11.40
2018-12-12T03:20:52.170Z,11.20
2018-12-12T03:29:13.227Z,11.10
2018-12-12T03:37:34.287Z,10.73
2018-12-12T03:45:55.258Z,11.17
2018-12-12T03:54:16.416Z,10.70
2018-12-12T04:02:37.472Z,10.73
2018-12-12T04:10:58.675Z,11.73
2018-12-12T04:19:19.860Z,12.23
2018-12-12T04:27:40.915Z,12.13
2018-12-12T04:36:01.972Z,11.83
2018-12-12T04:44:23.031Z,11.43
2018-12-12T04:52:44.091Z,10.63
2018-12-12T05:01:05.159Z,11.80
2018-12-12T05:09:26.235Z,10.67
2018-12-12T05:17:47.403Z,11.73
2018-12-12T05:26:08.523Z,10.83
2018-12-12T05:34:29.686Z,12.00
2018-12-12T05:42:51.819Z,13.67
2018-12-12T05:51:12.958Z,14.30
2018-12-12T05:59:34.019Z,13.10
2018-12-12T06:07:55.095Z,14.17
2018-12-12T06:16:16.267Z,13.00
2018-12-12T06:24:37.451Z,12.43
2018-12-12T06:32:58.583Z,12.57
2018-12-12T06:41:19.638Z,12.57
2018-12-12T06:49:40.826Z,15.30
2018-12-12T06:58:01.958Z,15.83
2018-12-12T07:06:23.011Z,16.57
2018-12-12T07:14:44.089Z,15.33
2018-12-12T07:23:05.247Z,16.67
2018-12-12T07:31:26.303Z,16.07
2018-12-12T07:39:47.353Z,15.87
2018-12-12T07:48:08.455Z,15.73
2018-12-12T07:56:29.507Z,15.60
2018-12-12T08:04:50.562Z,15.40
2018-12-12T08:13:11.619Z,16.03
2018-12-12T08:21:32.671Z,15.30
2018-12-12T08:29:53.851Z,16.83
2018-12-12T08:38:14.912Z,19.33
2018-12-12T08:46:35.971Z,22.60
2018-12-12T08:54:57.027Z,24.50
2018-12-12T09:03:18.079Z,17.57
2018-12-12T09:11:39.139Z,17.63
2018-12-12T09:20:00.198Z,20.93
2018-12-12T09:28:21.375Z,19.23
2018-12-12T09:36:42.511Z,19.97
2018-12-12T09:45:04.914Z,19.43
2018-12-12T09:53:26.254Z,19.00
2018-12-12T10:01:47.259Z,20.70
2018-12-12T10:10:08.323Z,21.50
2018-12-12T10:18:29.451Z,19.30
2018-12-12T10:26:51.511Z,18.77
2018-12-12T10:35:12.580Z,16.67
2018-12-12T10:43:33.720Z,17.07
2018-12-12T10:51:54.763Z,14.90
2018-12-12T11:00:17.868Z,16.03
2018-12-12T11:08:38.999Z,17.20
2018-12-12T11:17:00.068Z,16.77
2018-12-12T11:25:21.311Z,14.90
2018-12-12T11:33:42.375Z,13.93
2018-12-12T11:42:03.523Z,14.83
2018-12-12T11:50:24.718Z,14.27
2018-12-12T11:58:45.779Z,13.63
2018-12-12T12:07:06.850Z,15.10
2018-12-12T12:15:27.906Z,14.63
2018-12-12T12:23:48.959Z,14.40
2018-12-12T12:32:10.203Z,14.37
2018-12-12T12:40:31.355Z,14.20
2018-12-12T12:48:53.435Z,13.67
2018-12-12T12:57:14.580Z,14.33
2018-12-12T13:05:36.812Z,12.37
2018-12-12T13:13:57.898Z,11.27
2018-12-12T13:22:18.955Z,13.33
2018-12-12T13:30:40.104Z,10.30
2018-12-12T13:39:03.504Z,10.97
2018-12-12T13:47:25.908Z,11.97
2018-12-12T13:55:47.035Z,11.90
2018-12-12T14:04:08.139Z,10.17
2018-12-12T14:12:29.190Z,10.80
2018-12-12T14:20:50.279Z,10.43
2018-12-12T14:29:12.351Z,10.60
2018-12-12T14:37:33.411Z,11.47
2018-12-12T14:45:54.574Z,9.97
2018-12-12T14:54:15.674Z,10.60
2018-12-12T15:02:37.783Z,11.13
2018-12-12T15:10:58.950Z,10.93
2018-12-12T15:19:20.078Z,11.70
2018-12-12T15:27:42.243Z,11.90
2018-12-12T15:36:03.338Z,11.90
2018-12-12T15:44:24.504Z,11.17
2018-12-12T15:52:45.653Z,14.27
2018-12-12T16:01:06.672Z,11.17
2018-12-12T16:09:27.731Z,9.60
2018-12-12T16:17:48.799Z,8.97
2018-12-12T16:26:09.855Z,8.60
2018-12-12T16:34:30.912Z,7.90
2018-12-12T16:42:51.971Z,6.40
2018-12-12T16:51:13.135Z,6.00
2018-12-12T16:59:34.202Z,5.47
2018-12-12T17:07:55.330Z,6.50
2018-12-12T17:16:16.404Z,5.53
2018-12-12T17:24:37.575Z,6.27
2018-12-12T17:32:58.807Z,7.57
2018-12-12T17:41:19.864Z,5.00
2018-12-12T17:49:40.826Z,7.00
2018-12-12T17:58:01.882Z,24.43
2018-12-12T18:06:22.955Z,5.47
2018-12-12T18:14:45.042Z,10.63
2018-12-12T18:23:06.260Z,6.83
2018-12-12T18:31:27.315Z,6.87
2018-12-12T18:39:48.738Z,6.57
2018-12-12T18:48:09.899Z,6.20
2018-12-12T18:56:30.950Z,6.70
2018-12-12T19:04:52.011Z,8.60
2018-12-12T19:13:13.103Z,6.90
2018-12-12T19:21:34.212Z,8.37
2018-12-12T19:29:55.263Z,9.50
2018-12-12T19:38:16.319Z,6.90
2018-12-12T19:46:37.370Z,9.63
2018-12-12T19:54:58.426Z,9.17
2018-12-12T20:03:19.683Z,7.87
2018-12-12T20:11:40.766Z,8.50
2018-12-12T20:20:01.835Z,7.43
2018-12-12T20:28:22.950Z,9.57
2018-12-12T20:36:44.007Z,8.23
2018-12-12T20:45:05.059Z,8.93
2018-12-12T20:53:26.255Z,8.90
2018-12-12T21:01:47.351Z,8.07
2018-12-12T21:10:08.409Z,7.30
2018-12-12T21:18:29.539Z,7.60
2018-12-12T21:26:50.621Z,6.90
2018-12-12T21:35:12.808Z,7.43
2018-12-12T21:43:34.123Z,6.47
2018-12-12T21:51:55.307Z,6.67
2018-12-12T22:00:16.443Z,6.60
2018-12-12T22:08:37.502Z,7.10
2018-12-12T22:16:58.555Z,6.90
2018-12-12T22:25:19.608Z,6.90
2018-12-12T22:33:40.663Z,7.23
2018-12-12T22:42:01.747Z,6.87
2018-12-12T22:50:22.799Z,7.43
2018-12-12T22:58:43.859Z,7.03
2018-12-12T23:07:05.135Z,7.37
2018-12-12T23:15:26.195Z,7.93
2018-12-12T23:23:47.248Z,7.07
2018-12-12T23:32:08.411Z,7.70
2018-12-12T23:40:29.470Z,7.67
2018-12-12T23:48:51.663Z,7.63
2018-12-12T23:57:13.579Z,7.60
